Time;durP1;ratioP1;P1;durP2;ratioP2;P2;SDS_P1;SDS_P2;PMS_P1;PMS_P2;Temp;Humidity;BMP_temperature;BMP_pressure;BME280_temperature;BME280_humidity;BME280_pressure;Samples;Min_cycle;Max_cycle;Signal;HPM_P1;HPM_P2
2022/12/18 00:01:10;;;;;;;;;;;;;;;;;;5039767;28;19923;-84
2022/12/18 00:03:56;;;;;;;;;;;;;;;;;;5036456;28;19928;-85
2022/12/18 00:06:43;;;;;;;;;;;;;;;;;;5035158;28;19913;-85
2022/12/18 00:09:29;;;;;;;;;;;;;;;;;;5028003;28;19919;-85
2022/12/18 00:12:16;;;;;;;;;;;;;;;;;;5041977;28;19913;-86
2022/12/18 00:15:02;;;;;;;;;;;;;;;;;;5031155;28;19919;-85
2022/12/18 00:17:49;;;;;;;;;;;;;;;;;;5041547;28;19918;-86
2022/12/18 00:20:35;;;;;;;;;;;;;;;;;;5047091;28;19913;-86
2022/12/18 00:23:22;;;;;;;;;;;;;;;;;;5035153;28;20633;-86
2022/12/18 00:26:09;;;;;;;;;;;;;;;;;;5043069;28;19929;-88
2022/12/18 00:28:56;;;;;;;;;;;;;;;;;;5033758;28;19917;-86
2022/12/18 00:31:43;;;;;;;;;;;;;;;;;;5032097;28;19913;-87
2022/12/18 00:34:29;;;;;;;;;;;;;;;;;;5034570;28;19909;-87
2022/12/18 00:37:16;;;;;;;;;;;;;;;;;;5029488;28;19917;-88
2022/12/18 00:40:02;;;;;;;;;;;;;;;;;;5031770;28;19913;-88
2022/12/18 00:42:58;;;;;;;;;;;;;;;;;;5027133;28;19924;-87
2022/12/18 00:45:44;;;;;;;;;;;;;;;;;;5036215;28;20389;-87
2022/12/18 00:48:31;;;;;;;;;;;;;;;;;;5039708;28;19916;-87
2022/12/18 00:51:17;;;;;;;;;;;;;;;;;;5024643;28;20389;-87
2022/12/18 00:54:04;;;;;;;;;;;;;;;;;;5042530;28;19923;-87
2022/12/18 00:56:51;;;;;;;;;;;;;;;;;;5046695;28;19924;-87
2022/12/18 00:59:37;;;;;;;;;;;;;;;;;;5050405;28;19917;-88
2022/12/18 01:02:24;;;;;;;;;;;;;;;;;;5048371;28;19924;-88
2022/12/18 01:05:10;;;;;;;;;;;;;;;;;;5051484;28;19917;-89
2022/12/18 01:07:57;;;;;;;;;;;;;;;;;;5048723;28;19920;-88
2022/12/18 01:10:43;;;;;;;;;;;;;;;;;;5052698;28;19909;-88
2022/12/18 01:13:30;;;;;;;;;;;;;;;;;;5048214;28;19923;-88
2022/12/18 01:16:16;;;;;;;;;;;;;;;;;;5042049;28;20600;-89
2022/12/18 01:19:03;;;;;;;;;;;;;;;;;;5048201;28;20279;-87
2022/12/18 01:21:49;;;;;;;;;;;;;;;;;;5041614;28;19915;-87
2022/12/18 01:24:36;;;;;;;;;;;;;;;;;;5031135;28;19940;-84
2022/12/18 01:27:23;;;;;;;;;;;;;;;;;;5033437;28;19916;-86
2022/12/18 01:30:09;;;;;;;;;;;;;;;;;;5029455;28;19915;-86
2022/12/18 01:32:56;;;;;;;;;;;;;;;;;;5042408;28;19917;-86
2022/12/18 01:35:42;;;;;;;;;;;;;;;;;;5046077;28;19927;-86
2022/12/18 01:38:29;;;;;;;;;;;;;;;;;;5033909;28;19917;-88
2022/12/18 01:41:15;;;;;;;;;;;;;;;;;;5043990;28;19917;-88
2022/12/18 01:44:02;;;;;;;;;;;;;;;;;;5043427;28;20245;-88
2022/12/18 01:46:48;;;;;;;;;;;;;;;;;;5031671;28;19920;-88
2022/12/18 01:49:35;;;;;;;;;;;;;;;;;;5042111;28;19917;-87
2022/12/18 01:52:21;;;;;;;;;;;;;;;;;;5048565;28;20376;-86
2022/12/18 01:55:08;;;;;;;;;;;;;;;;;;5044324;28;19928;-88
2022/12/18 01:57:54;;;;;;;;;;;;;;;;;;5030706;28;19924;-86
2022/12/18 02:00:41;;;;;;;;;;;;;;;;;;5035881;28;19923;-84
2022/12/18 02:03:27;;;;;;;;;;;;;;;;;;5038629;28;20301;-82
2022/12/18 02:06:14;;;;;;;;;;;;;;;;;;5039005;28;20295;-85
2022/12/18 02:09:00;;;;;;;;;;;;;;;;;;5034397;28;19923;-84
2022/12/18 02:11:47;;;;;;;;;;;;;;;;;;5031306;28;19916;-84
2022/12/18 02:14:33;;;;;;;;;;;;;;;;;;5041774;28;19919;-84
2022/12/18 02:17:20;;;;;;;;;;;;;;;;;;5046027;28;19917;-84
2022/12/18 02:20:06;;;;;;;;;;;;;;;;;;5040290;28;19975;-86
2022/12/18 02:22:53;;;;;;;;;;;;;;;;;;5021041;28;19920;-85
2022/12/18 02:25:39;;;;;;;;;;;;;;;;;;5038958;28;19920;-86
2022/12/18 02:28:25;;;;;;;;;;;;;;;;;;5042191;28;19924;-86
2022/12/18 02:31:12;;;;;;;;;;;;;;;;;;5043842;28;19920;-85
2022/12/18 02:33:59;;;;;;;;;;;;;;;;;;5039950;28;20380;-86
2022/12/18 02:36:45;;;;;;;;;;;;;;;;;;5033434;28;19921;-86
2022/12/18 02:39:32;;;;;;;;;;;;;;;;;;5037909;28;19923;-86
2022/12/18 02:42:18;;;;;;;;;;;;;;;;;;5038701;28;20383;-84
2022/12/18 02:45:05;;;;;;;;;;;;;;;;;;5045391;28;20022;-85
2022/12/18 02:47:51;;;;;;;;;;;;;;;;;;5045164;28;19917;-86
2022/12/18 02:50:38;;;;;;;;;;;;;;;;;;5047791;28;20391;-86
2022/12/18 02:53:24;;;;;;;;;;;;;;;;;;5039537;28;19919;-86
2022/12/18 02:56:11;;;;;;;;;;;;;;;;;;5029075;28;19917;-86
2022/12/18 02:58:57;;;;;;;;;;;;;;;;;;5037309;28;19928;-88
2022/12/18 03:01:44;;;;;;;;;;;;;;;;;;5043515;28;20371;-86
2022/12/18 03:04:30;;;;;;;;;;;;;;;;;;5036606;28;19928;-88
2022/12/18 03:07:17;;;;;;;;;;;;;;;;;;5044614;28;19923;-87
2022/12/18 03:10:03;;;;;;;;;;;;;;;;;;5047106;28;20490;-86
2022/12/18 03:12:49;;;;;;;;;;;;;;;;;;5045856;28;19926;-86
2022/12/18 03:15:36;;;;;;;;;;;;;;;;;;5040218;28;19909;-85
2022/12/18 03:18:22;;;;;;;;;;;;;;;;;;5041968;28;19917;-86
2022/12/18 03:21:09;;;;;;;;;;;;;;;;;;5046404;28;20364;-89
2022/12/18 03:23:55;;;;;;;;;;;;;;;;;;5040782;28;19916;-81
2022/12/18 03:26:42;;;;;;;;;;;;;;;;;;5036735;28;19925;-81
2022/12/18 03:29:28;;;;;;;;;;;;;;;;;;5040785;28;19920;-83
2022/12/18 03:32:15;;;;;;;;;;;;;;;;;;5028626;28;20360;-83
2022/12/18 03:35:01;;;;;;;;;;;;;;;;;;5020447;28;19912;-83
2022/12/18 03:37:49;;;;;;;;;;;;;;;;;;5031299;28;19917;-82
2022/12/18 03:40:35;;;;;;;;;;;;;;;;;;5039548;28;19909;-82
2022/12/18 03:43:22;;;;;;;;;;;;;;;;;;5028339;28;19940;-81
2022/12/18 03:46:08;;;;;;;;;;;;;;;;;;5027368;28;19922;-82
2022/12/18 03:48:55;;;;;;;;;;;;;;;;;;5018821;28;20384;-82
2022/12/18 03:51:41;;;;;;;;;;;;;;;;;;5028171;28;19913;-81
2022/12/18 03:54:28;;;;;;;;;;;;;;;;;;5013170;28;20440;-82
2022/12/18 03:57:14;;;;;;;;;;;;;;;;;;5032114;28;19913;-83
2022/12/18 04:00:01;;;;;;;;;;;;;;;;;;5037415;28;19928;-81
2022/12/18 04:02:47;;;;;;;;;;;;;;;;;;5015966;28;19913;-82
2022/12/18 04:05:34;;;;;;;;;;;;;;;;;;5037187;28;19925;-82
2022/12/18 04:08:21;;;;;;;;;;;;;;;;;;5021535;28;19928;-81
2022/12/18 04:11:07;;;;;;;;;;;;;;;;;;5027088;28;19924;-82
2022/12/18 04:13:55;;;;;;;;;;;;;;;;;;5043948;28;19924;-80
2022/12/18 04:16:41;;;;;;;;;;;;;;;;;;5049546;28;19923;-82
2022/12/18 04:19:28;;;;;;;;;;;;;;;;;;5037857;28;19927;-81
2022/12/18 04:22:14;;;;;;;;;;;;;;;;;;5045963;28;20651;-81
2022/12/18 04:25:01;;;;;;;;;;;;;;;;;;5038612;28;19985;-82
2022/12/18 04:27:47;;;;;;;;;;;;;;;;;;5042744;28;19936;-81
2022/12/18 04:30:34;;;;;;;;;;;;;;;;;;5044046;28;20391;-81
2022/12/18 04:33:20;;;;;;;;;;;;;;;;;;5037027;28;19917;-81
2022/12/18 04:36:07;;;;;;;;;;;;;;;;;;5036116;28;20356;-80
2022/12/18 04:38:53;;;;;;;;;;;;;;;;;;5041618;28;19916;-82
2022/12/18 04:41:41;;;;;;;;;;;;;;;;;;5037276;28;20567;-81
2022/12/18 04:44:27;;;;;;;;;;;;;;;;;;5036146;28;19924;-80
2022/12/18 04:47:13;;;;;;;;;;;;;;;;;;5029770;28;19924;-80
2022/12/18 04:50:00;;;;;;;;;;;;;;;;;;5048735;28;20674;-81
2022/12/18 04:52:46;;;;;;;;;;;;;;;;;;5021321;28;19913;-82
2022/12/18 04:55:33;;;;;;;;;;;;;;;;;;5045784;28;19936;-82
2022/12/18 04:58:19;;;;;;;;;;;;;;;;;;5029640;28;19917;-82
2022/12/18 05:01:07;;;;;;;;;;;;;;;;;;5039611;28;19920;-81
2022/12/18 05:03:53;;;;;;;;;;;;;;;;;;5042546;28;19935;-81
2022/12/18 05:06:40;;;;;;;;;;;;;;;;;;5043847;28;19925;-82
2022/12/18 05:09:26;;;;;;;;;;;;;;;;;;5046161;28;19908;-81
2022/12/18 05:12:13;;;;;;;;;;;;;;;;;;5033249;28;19924;-82
2022/12/18 05:14:59;;;;;;;;;;;;;;;;;;5045060;28;19916;-82
2022/12/18 05:17:46;;;;;;;;;;;;;;;;;;5038029;28;20395;-82
2022/12/18 05:20:32;;;;;;;;;;;;;;;;;;5043320;28;19917;-81
2022/12/18 05:23:19;;;;;;;;;;;;;;;;;;5041950;28;19924;-82
2022/12/18 05:26:05;;;;;;;;;;;;;;;;;;5036637;28;19927;-82
2022/12/18 05:28:52;;;;;;;;;;;;;;;;;;5032170;28;19913;-81
2022/12/18 05:31:38;;;;;;;;;;;;;;;;;;5039964;28;19921;-81
2022/12/18 05:34:25;;;;;;;;;;;;;;;;;;5042781;28;19924;-82
2022/12/18 05:37:11;;;;;;;;;;;;;;;;;;5030374;28;19909;-81
2022/12/18 05:39:58;;;;;;;;;;;;;;;;;;5043792;28;19913;-81
2022/12/18 05:42:44;;;;;;;;;;;;;;;;;;5035555;28;20381;-82
2022/12/18 05:45:31;;;;;;;;;;;;;;;;;;5037847;28;19920;-80
2022/12/18 05:48:18;;;;;;;;;;;;;;;;;;5030820;28;19984;-84
2022/12/18 05:51:05;;;;;;;;;;;;;;;;;;5029406;28;20369;-85
2022/12/18 05:53:51;;;;;;;;;;;;;;;;;;5031396;28;19921;-85
2022/12/18 05:56:38;;;;;;;;;;;;;;;;;;5029818;28;19913;-86
2022/12/18 05:59:24;;;;;;;;;;;;;;;;;;5041664;28;19923;-87
2022/12/18 06:02:11;;;;;;;;;;;;;;;;;;5041404;28;19927;-85
2022/12/18 06:04:57;;;;;;;;;;;;;;;;;;5029726;28;19928;-87
2022/12/18 06:07:44;;;;;;;;;;;;;;;;;;5043210;28;19917;-87
2022/12/18 06:10:30;;;;;;;;;;;;;;;;;;5045777;28;19909;-87
2022/12/18 06:13:17;;;;;;;;;;;;;;;;;;5047001;28;19916;-88
2022/12/18 06:16:04;;;;;;;;;;;;;;;;;;5040554;28;19919;-87
2022/12/18 06:18:50;;;;;;;;;;;;;;;;;;5046001;28;19913;-87
2022/12/18 06:21:37;;;;;;;;;;;;;;;;;;5047333;28;19915;-86
2022/12/18 06:24:23;;;;;;;;;;;;;;;;;;5045369;28;19916;-87
2022/12/18 06:27:10;;;;;;;;;;;;;;;;;;5058349;28;19921;-86
2022/12/18 06:29:56;;;;;;;;;;;;;;;;;;5044481;28;19916;-86
2022/12/18 06:32:43;;;;;;;;;;;;;;;;;;5040346;28;19914;-86
2022/12/18 06:35:29;;;;;;;;;;;;;;;;;;5033817;28;19913;-86
2022/12/18 06:38:16;;;;;;;;;;;;;;;;;;5033280;28;19908;-86
2022/12/18 06:41:02;;;;;;;;;;;;;;;;;;5037117;28;19920;-85
2022/12/18 06:43:49;;;;;;;;;;;;;;;;;;5033404;28;19921;-86
2022/12/18 06:46:35;;;;;;;;;;;;;;;;;;5039879;28;20494;-84
2022/12/18 06:49:22;;;;;;;;;;;;;;;;;;5041807;28;19921;-86
2022/12/18 06:52:08;;;;;;;;;;;;;;;;;;5035801;28;19918;-86
2022/12/18 06:54:55;;;;;;;;;;;;;;;;;;5038247;28;19920;-85
2022/12/18 06:57:41;;;;;;;;;;;;;;;;;;5037958;28;19920;-86
2022/12/18 07:00:28;;;;;;;;;;;;;;;;;;5053967;28;19916;-86
2022/12/18 07:03:14;;;;;;;;;;;;;;;;;;5026515;28;19917;-84
2022/12/18 07:06:01;;;;;;;;;;;;;;;;;;5045137;28;19929;-83
2022/12/18 07:08:47;;;;;;;;;;;;;;;;;;5043512;28;19920;-83
2022/12/18 07:11:34;;;;;;;;;;;;;;;;;;5020677;28;19913;-78
2022/12/18 07:14:20;;;;;;;;;;;;;;;;;;5037306;28;20511;-81
2022/12/18 07:17:07;;;;;;;;;;;;;;;;;;5033548;28;19919;-81
2022/12/18 07:19:53;;;;;;;;;;;;;;;;;;5040757;28;19912;-81
2022/12/18 07:22:40;;;;;;;;;;;;;;;;;;5031226;28;19924;-80
2022/12/18 07:25:26;;;;;;;;;;;;;;;;;;5038346;28;19936;-81
2022/12/18 07:28:14;;;;;;;;;;;;;;;;;;5032493;28;19920;-79
2022/12/18 07:31:03;;;;;;;;;;;;;;;;;;5039749;28;19917;-80
2022/12/18 07:33:50;;;;;;;;;;;;;;;;;;5037092;28;20301;-79
2022/12/18 07:36:36;;;;;;;;;;;;;;;;;;5033850;28;19919;-79
2022/12/18 07:39:23;;;;;;;;;;;;;;;;;;5029629;28;19921;-83
2022/12/18 07:45:31;;;;;;;;;;;;;;;;;;4997078;28;19921;-85
2022/12/18 07:48:17;;;;;;;;;;;;;;;;;;5025502;28;19925;-84
2022/12/18 07:51:04;;;;;;;;;;;;;;;;;;5049324;28;19916;-83
2022/12/18 07:53:50;;;;;;;;;;;;;;;;;;5047367;28;19916;-84
2022/12/18 07:56:37;;;;;;;;;;;;;;;;;;5048523;28;19913;-82
2022/12/18 07:59:23;;;;;;;;;;;;;;;;;;5047633;28;19951;-82
2022/12/18 08:02:10;;;;;;;;;;;;;;;;;;5045281;28;19919;-80
2022/12/18 08:04:56;;;;;;;;;;;;;;;;;;5046472;28;20285;-80
2022/12/18 08:07:43;;;;;;;;;;;;;;;;;;5047350;28;19921;-83
2022/12/18 08:10:29;;;;;;;;;;;;;;;;;;5046483;28;19921;-83
2022/12/18 08:13:16;;;;;;;;;;;;;;;;;;5020994;28;20384;-79
2022/12/18 08:16:02;;;;;;;;;;;;;;;;;;5048978;28;19917;-80
2022/12/18 08:18:49;;;;;;;;;;;;;;;;;;5042369;28;19924;-84
2022/12/18 08:21:35;;;;;;;;;;;;;;;;;;5050347;28;19912;-74
2022/12/18 08:24:22;;;;;;;;;;;;;;;;;;5042115;28;19924;-76
2022/12/18 08:27:08;;;;;;;;;;;;;;;;;;5041009;28;20706;-77
2022/12/18 08:30:06;;;;;;;;;;;;;;;;;;;;;
2022/12/18 08:32:53;;;;;;;;;;;;;;;;;;5045541;28;20586;-76
2022/12/18 08:35:40;;;;;;;;;;;;;;;;;;5046372;28;19923;-74
2022/12/18 08:38:26;;;;;;;;;;;;;;;;;;5039862;28;19935;-76
2022/12/18 08:41:13;;;;;;;;;;;;;;;;;;5046180;28;19923;-75
2022/12/18 08:47:04;;;;;;;;;;;;;;;;;;5051587;28;20405;-75
2022/12/18 08:49:51;;;;;;;;;;;;;;;;;;5051693;28;20461;-76
2022/12/18 08:52:47;;;;;;;;;;;;;;;;;;5045466;28;19916;-75
2022/12/18 08:55:34;;;;;;;;;;;;;;;;;;5033563;28;19916;-76
2022/12/18 08:58:21;;;;;;;;;;;;;;;;;;5048318;28;19933;-75
2022/12/18 09:01:08;;;;;;;;;;;;;;;;;;5045550;28;19913;-76
2022/12/18 09:03:55;;;;;;;;;;;;;;;;;;5046998;28;19922;-75
2022/12/18 09:06:41;;;;;;;;;;;;;;;;;;5039063;28;19929;-75
2022/12/18 09:09:28;;;;;;;;;;;;;;;;;;5042923;28;19919;-76
2022/12/18 09:12:14;;;;;;;;;;;;;;;;;;5035741;28;19917;-73
2022/12/18 09:15:01;;;;;;;;;;;;;;;;;;5032172;28;19923;-74
2022/12/18 09:17:47;;;;;;;;;;;;;;;;;;5035609;28;19920;-75
2022/12/18 09:20:34;;;;;;;;;;;;;;;;;;5039448;28;20291;-76
2022/12/18 09:23:20;;;;;;;;;;;;;;;;;;5025943;28;19914;-74
2022/12/18 09:26:07;;;;;;;;;;;;;;;;;;5030945;28;19932;-74
2022/12/18 09:28:54;;;;;;;;;;;;;;;;;;5043810;28;19923;-75
2022/12/18 09:31:40;;;;;;;;;;;;;;;;;;5045292;28;19916;-75
2022/12/18 09:34:26;;;;;;;;;;;;;;;;;;5040664;28;20617;-75
2022/12/18 09:37:13;;;;;;;;;;;;;;;;;;5039775;28;19924;-75
2022/12/18 09:39:59;;;;;;;;;;;;;;;;;;5038495;28;19917;-75
2022/12/18 09:42:46;;;;;;;;;;;;;;;;;;5045560;28;19927;-76
2022/12/18 09:45:33;;;;;;;;;;;;;;;;;;5045520;28;19921;-74
2022/12/18 09:48:20;;;;;;;;;;;;;;;;;;5045551;28;19992;-74
2022/12/18 09:51:06;;;;;;;;;;;;;;;;;;5039572;28;19924;-77
2022/12/18 09:53:53;;;;;;;;;;;;;;;;;;5045662;28;19925;-76
2022/12/18 09:56:39;;;;;;;;;;;;;;;;;;5047255;28;19917;-75
2022/12/18 09:59:26;;;;;;;;;;;;;;;;;;5036744;28;19913;-77
2022/12/18 10:02:12;;;;;;;;;;;;;;;;;;5036593;28;19912;-74
2022/12/18 10:04:59;;;;;;;;;;;;;;;;;;5044844;28;20299;-74
2022/12/18 10:07:46;;;;;;;;;;;;;;;;;;5042888;28;19928;-75
2022/12/18 10:10:32;;;;;;;;;;;;;;;;;;5044382;28;19917;-77
2022/12/18 10:13:19;;;;;;;;;;;;;;;;;;5043282;28;19913;-76
2022/12/18 10:16:05;;;;;;;;;;;;;;;;;;5042504;28;19917;-76
2022/12/18 10:18:52;;;;;;;;;;;;;;;;;;5030714;28;19955;-76
2022/12/18 10:21:38;;;;;;;;;;;;;;;;;;5051008;28;19912;-81
2022/12/18 10:24:25;;;;;;;;;;;;;;;;;;5047890;28;19924;-80
2022/12/18 10:27:11;;;;;;;;;;;;;;;;;;5048067;28;19916;-77
2022/12/18 10:29:58;;;;;;;;;;;;;;;;;;5044229;28;19917;-83
2022/12/18 10:32:44;;;;;;;;;;;;;;;;;;5045347;28;19954;-80
2022/12/18 10:35:31;;;;;;;;;;;;;;;;;;5048117;28;20041;-79
2022/12/18 10:38:17;;;;;;;;;;;;;;;;;;5050036;28;19916;-78
2022/12/18 10:41:04;;;;;;;;;;;;;;;;;;5048567;28;19920;-78
2022/12/18 10:43:50;;;;;;;;;;;;;;;;;;5047378;28;20347;-79
2022/12/18 10:46:37;;;;;;;;;;;;;;;;;;5046356;28;19925;-80
2022/12/18 10:49:23;;;;;;;;;;;;;;;;;;5039112;28;19916;-78
2022/12/18 10:52:10;;;;;;;;;;;;;;;;;;5051878;28;19913;-78
2022/12/18 10:54:58;;;;;;;;;;;;;;;;;;5043315;28;20295;-78
2022/12/18 10:57:44;;;;;;;;;;;;;;;;;;5041734;28;20433;-77
2022/12/18 11:00:31;;;;;;;;;;;;;;;;;;5041179;28;19920;-78
2022/12/18 11:03:17;;;;;;;;;;;;;;;;;;5040755;28;19920;-79
2022/12/18 11:06:04;;;;;;;;;;;;;;;;;;5040491;28;19944;-79
2022/12/18 11:08:50;;;;;;;;;;;;;;;;;;5037759;28;19924;-78
2022/12/18 11:11:37;;;;;;;;;;;;;;;;;;5031936;28;20247;-79
2022/12/18 11:14:24;;;;;;;;;;;;;;;;;;5031211;28;19921;-80
2022/12/18 11:17:10;;;;;;;;;;;;;;;;;;5046166;28;19917;-79
2022/12/18 11:19:56;;;;;;;;;;;;;;;;;;5031096;28;19912;-75
2022/12/18 11:22:43;;;;;;;;;;;;;;;;;;5045994;28;19917;-73
2022/12/18 11:25:30;;;;;;;;;;;;;;;;;;5042843;28;19921;-76
2022/12/18 11:28:16;;;;;;;;;;;;;;;;;;5040595;28;19929;-75
2022/12/18 11:31:03;;;;;;;;;;;;;;;;;;5045278;28;19913;-75
2022/12/18 11:33:49;;;;;;;;;;;;;;;;;;5042300;28;20371;-75
2022/12/18 11:36:35;;;;;;;;;;;;;;;;;;5042743;28;19923;-75
2022/12/18 11:39:22;;;;;;;;;;;;;;;;;;5040616;28;19917;-75
2022/12/18 11:42:09;;;;;;;;;;;;;;;;;;5036643;28;19931;-73
2022/12/18 11:44:56;;;;;;;;;;;;;;;;;;5037838;28;19917;-76
2022/12/18 11:47:43;;;;;;;;;;;;;;;;;;5045178;28;19920;-74
2022/12/18 11:50:29;;;;;;;;;;;;;;;;;;5025102;28;20373;-74
2022/12/18 11:53:15;;;;;;;;;;;;;;;;;;5042453;28;19928;-74
2022/12/18 11:56:02;;;;;;;;;;;;;;;;;;5025507;28;20391;-75
2022/12/18 11:58:48;;;;;;;;;;;;;;;;;;5040491;28;19924;-74
2022/12/18 12:01:35;;;;;;;;;;;;;;;;;;5043299;28;20304;-75
2022/12/18 12:04:22;;;;;;;;;;;;;;;;;;5039112;28;19921;-74
2022/12/18 12:07:08;;;;;;;;;;;;;;;;;;5041661;28;20105;-77
2022/12/18 12:09:55;;;;;;;;;;;;;;;;;;5043615;28;19913;-75
2022/12/18 12:12:47;;;;;;;;;;;;;;;;;;5041284;28;19916;-76
2022/12/18 12:15:35;;;;;;;;;;;;;;;;;;5041489;28;20395;-76
2022/12/18 12:18:22;;;;;;;;;;;;;;;;;;5040257;28;19923;-76
2022/12/18 12:21:08;;;;;;;;;;;;;;;;;;5039042;28;19928;-75
2022/12/18 12:23:55;;;;;;;;;;;;;;;;;;5038561;28;19910;-76
2022/12/18 12:26:41;;;;;;;;;;;;;;;;;;5036986;28;19931;-76
2022/12/18 12:29:28;;;;;;;;;;;;;;;;;;5033640;28;19923;-75
2022/12/18 12:32:14;;;;;;;;;;;;;;;;;;5032124;28;20535;-73
2022/12/18 12:35:01;;;;;;;;;;;;;;;;;;5035623;28;19913;-75
2022/12/18 12:37:47;;;;;;;;;;;;;;;;;;5042841;28;19915;-74
2022/12/18 12:40:33;;;;;;;;;;;;;;;;;;5039295;28;19921;-75
2022/12/18 12:43:20;;;;;;;;;;;;;;;;;;5041364;28;20312;-76
2022/12/18 12:46:07;;;;;;;;;;;;;;;;;;5039208;28;19921;-76
2022/12/18 12:48:53;;;;;;;;;;;;;;;;;;5039375;28;19959;-75
2022/12/18 12:51:40;;;;;;;;;;;;;;;;;;5040795;28;19909;-75
2022/12/18 12:54:26;;;;;;;;;;;;;;;;;;5042511;28;19910;-75
2022/12/18 12:57:13;;;;;;;;;;;;;;;;;;5038168;28;19924;-74
2022/12/18 12:59:59;;;;;;;;;;;;;;;;;;5043993;28;19917;-76
2022/12/18 13:02:46;;;;;;;;;;;;;;;;;;5039727;28;19917;-75
2022/12/18 13:05:32;;;;;;;;;;;;;;;;;;5039898;28;20284;-75
2022/12/18 13:08:18;;;;;;;;;;;;;;;;;;5034299;28;19928;-77
2022/12/18 13:14:10;;;;;;;;;;;;;;;;;;5033067;28;19959;-76
2022/12/18 13:16:57;;;;;;;;;;;;;;;;;;5038641;28;19913;-75
2022/12/18 13:19:43;;;;;;;;;;;;;;;;;;5031314;28;19915;-75
2022/12/18 13:22:30;;;;;;;;;;;;;;;;;;5045460;28;19913;-74
2022/12/18 13:25:17;;;;;;;;;;;;;;;;;;5042385;28;20292;-75
2022/12/18 13:28:03;;;;;;;;;;;;;;;;;;5042314;28;19931;-75
2022/12/18 13:30:50;;;;;;;;;;;;;;;;;;5045667;28;20476;-74
2022/12/18 13:33:37;;;;;;;;;;;;;;;;;;5040982;28;19913;-76
2022/12/18 13:36:23;;;;;;;;;;;;;;;;;;5040104;28;19920;-77
2022/12/18 13:39:10;;;;;;;;;;;;;;;;;;5040710;28;19913;-75
2022/12/18 13:41:56;;;;;;;;;;;;;;;;;;5044737;28;20027;-75
2022/12/18 13:44:43;;;;;;;;;;;;;;;;;;5040031;28;20355;-73
2022/12/18 13:47:29;;;;;;;;;;;;;;;;;;5038656;28;19921;-75
2022/12/18 13:50:16;;;;;;;;;;;;;;;;;;5035975;28;19916;-74
2022/12/18 13:53:02;;;;;;;;;;;;;;;;;;5020974;28;19919;-76
2022/12/18 13:55:49;;;;;;;;;;;;;;;;;;5041221;28;20372;-75
2022/12/18 13:58:35;;;;;;;;;;;;;;;;;;5043146;28;19913;-75
2022/12/18 14:01:22;;;;;;;;;;;;;;;;;;5040872;28;19917;-75
2022/12/18 14:04:09;;;;;;;;;;;;;;;;;;5042529;28;19935;-75
2022/12/18 14:06:55;;;;;;;;;;;;;;;;;;5043552;28;19920;-76
2022/12/18 14:09:42;;;;;;;;;;;;;;;;;;5041690;28;19915;-75
2022/12/18 14:15:33;;;;;;;;;;;;;;;;;;5043105;28;19924;-74
2022/12/18 14:18:20;;;;;;;;;;;;;;;;;;5042866;28;19912;-75
2022/12/18 14:21:06;;;;;;;;;;;;;;;;;;5044866;28;19912;-75
2022/12/18 14:23:53;;;;;;;;;;;;;;;;;;5045217;28;19913;-75
2022/12/18 14:26:39;;;;;;;;;;;;;;;;;;5040972;28;19924;-74
2022/12/18 14:29:26;;;;;;;;;;;;;;;;;;5044032;28;19944;-75
2022/12/18 14:32:14;;;;;;;;;;;;;;;;;;5045949;28;19912;-75
2022/12/18 14:35:00;;;;;;;;;;;;;;;;;;5043328;28;19924;-76
2022/12/18 14:37:46;;;;;;;;;;;;;;;;;;5043396;28;19909;-74
2022/12/18 14:40:33;;;;;;;;;;;;;;;;;;5041453;28;19920;-74
2022/12/18 14:43:19;;;;;;;;;;;;;;;;;;5041658;28;19936;-75
2022/12/18 14:46:06;;;;;;;;;;;;;;;;;;5037870;28;19921;-75
2022/12/18 14:48:53;;;;;;;;;;;;;;;;;;5040560;28;20592;-76
2022/12/18 14:51:39;;;;;;;;;;;;;;;;;;5046884;28;19916;-76
2022/12/18 14:54:26;;;;;;;;;;;;;;;;;;5033061;28;19917;-76
2022/12/18 14:57:12;;;;;;;;;;;;;;;;;;5041873;28;19916;-76
2022/12/18 14:59:59;;;;;;;;;;;;;;;;;;5036485;28;19912;-77
2022/12/18 15:02:46;;;;;;;;;;;;;;;;;;5036895;28;19924;-75
2022/12/18 15:05:33;;;;;;;;;;;;;;;;;;5045388;28;19924;-78
2022/12/18 15:08:19;;;;;;;;;;;;;;;;;;5044391;28;19923;-74
2022/12/18 15:11:06;;;;;;;;;;;;;;;;;;5041483;28;19928;-75
2022/12/18 15:13:55;;;;;;;;;;;;;;;;;;5040798;28;19920;-76
2022/12/18 15:16:41;;;;;;;;;;;;;;;;;;5040505;28;19916;-77
2022/12/18 15:19:28;;;;;;;;;;;;;;;;;;5041626;28;19913;-77
2022/12/18 15:22:14;;;;;;;;;;;;;;;;;;5041396;28;19927;-77
2022/12/18 15:25:01;;;;;;;;;;;;;;;;;;5038529;28;20482;-77
2022/12/18 15:27:47;;;;;;;;;;;;;;;;;;5042751;28;19932;-77
2022/12/18 15:30:34;;;;;;;;;;;;;;;;;;5044578;28;19917;-77
2022/12/18 15:33:20;;;;;;;;;;;;;;;;;;5043527;28;19913;-76
2022/12/18 15:36:07;;;;;;;;;;;;;;;;;;5041799;28;19912;-76
2022/12/18 15:38:53;;;;;;;;;;;;;;;;;;5040078;28;19924;-78
2022/12/18 15:41:40;;;;;;;;;;;;;;;;;;5040759;28;19921;-78
2022/12/18 15:44:28;;;;;;;;;;;;;;;;;;5041050;28;19928;-78
2022/12/18 15:47:14;;;;;;;;;;;;;;;;;;5043796;28;20249;-76
2022/12/18 15:50:02;;;;;;;;;;;;;;;;;;5043972;28;19913;-77
2022/12/18 15:52:49;;;;;;;;;;;;;;;;;;5042378;28;19924;-77
2022/12/18 15:58:51;;;;;;;;;;;;;;;;;;4965812;28;19935;-77
2022/12/18 16:01:38;;;;;;;;;;;;;;;;;;5041768;28;19935;-76
2022/12/18 16:04:25;;;;;;;;;;;;;;;;;;5038082;28;20373;-78
2022/12/18 16:07:11;;;;;;;;;;;;;;;;;;5042746;28;19924;-76
2022/12/18 16:09:58;;;;;;;;;;;;;;;;;;5026598;28;20399;-76
2022/12/18 16:12:44;;;;;;;;;;;;;;;;;;5044422;28;19928;-76
2022/12/18 16:15:31;;;;;;;;;;;;;;;;;;5042125;28;19916;-77
2022/12/18 16:18:17;;;;;;;;;;;;;;;;;;5026407;28;19920;-76
2022/12/18 16:21:04;;;;;;;;;;;;;;;;;;5044618;28;19917;-76
2022/12/18 16:23:50;;;;;;;;;;;;;;;;;;5048017;28;19941;-75
2022/12/18 16:26:37;;;;;;;;;;;;;;;;;;5044260;28;20709;-77
2022/12/18 16:29:27;;;;;;;;;;;;;;;;;;5043995;28;19913;-76
2022/12/18 16:32:13;;;;;;;;;;;;;;;;;;5044244;28;19917;-75
2022/12/18 16:35:01;;;;;;;;;;;;;;;;;;5035546;28;19913;-76
2022/12/18 16:37:47;;;;;;;;;;;;;;;;;;5037280;28;19916;-75
2022/12/18 16:41:30;;;;;;;;;;;;;;;;;;5041151;28;19917;-77
2022/12/18 16:43:40;;;;;;;;;;;;;;;;;;5046469;28;19924;-75
2022/12/18 16:46:26;;;;;;;;;;;;;;;;;;5042650;28;19926;-77
2022/12/18 16:49:13;;;;;;;;;;;;;;;;;;5042268;28;20370;-77
2022/12/18 16:51:59;;;;;;;;;;;;;;;;;;5040728;28;19919;-78
2022/12/18 16:54:46;;;;;;;;;;;;;;;;;;5045544;28;19917;-78
2022/12/18 16:57:32;;;;;;;;;;;;;;;;;;5046692;28;19919;-78
2022/12/18 17:00:19;;;;;;;;;;;;;;;;;;5042432;28;19916;-77
2022/12/18 17:03:05;;;;;;;;;;;;;;;;;;5039412;28;19920;-77
2022/12/18 17:05:52;;;;;;;;;;;;;;;;;;5041768;28;19923;-77
2022/12/18 17:08:38;;;;;;;;;;;;;;;;;;5038767;28;19920;-80
2022/12/18 17:11:25;;;;;;;;;;;;;;;;;;5030140;28;20024;-77
2022/12/18 17:14:11;;;;;;;;;;;;;;;;;;5043178;28;20355;-75
2022/12/18 17:16:59;;;;;;;;;;;;;;;;;;5046754;28;19919;-76
2022/12/18 17:19:45;;;;;;;;;;;;;;;;;;5041423;28;19953;-75
2022/12/18 17:22:31;;;;;;;;;;;;;;;;;;5029681;28;19947;-75
2022/12/18 17:25:18;;;;;;;;;;;;;;;;;;5030170;28;19917;-77
2022/12/18 17:28:04;;;;;;;;;;;;;;;;;;5030101;28;19940;-75
2022/12/18 17:30:51;;;;;;;;;;;;;;;;;;5044643;28;19913;-75
2022/12/18 17:33:38;;;;;;;;;;;;;;;;;;5022333;28;19924;-77
2022/12/18 17:36:27;;;;;;;;;;;;;;;;;;5022311;28;19913;-76
2022/12/18 17:39:13;;;;;;;;;;;;;;;;;;5040888;28;19917;-75
2022/12/18 17:42:00;;;;;;;;;;;;;;;;;;5047596;28;19928;-76
2022/12/18 17:44:46;;;;;;;;;;;;;;;;;;5044480;28;19913;-76
2022/12/18 17:47:35;;;;;;;;;;;;;;;;;;5047395;28;19927;-75
2022/12/18 17:50:22;;;;;;;;;;;;;;;;;;5041743;28;20415;-79
2022/12/18 17:53:10;;;;;;;;;;;;;;;;;;5043587;28;19917;-76
2022/12/18 17:55:57;;;;;;;;;;;;;;;;;;5028267;28;19927;-74
2022/12/18 17:58:43;;;;;;;;;;;;;;;;;;5030316;28;20273;-80
2022/12/18 18:01:30;;;;;;;;;;;;;;;;;;5035643;28;19916;-82
2022/12/18 18:04:19;;;;;;;;;;;;;;;;;;5026816;28;19912;-83
2022/12/18 18:07:13;;;;;;;;;;;;;;;;;;5039292;28;19926;-78
2022/12/18 18:10:00;;;;;;;;;;;;;;;;;;5040281;28;19912;-76
2022/12/18 18:15:51;;;;;;;;;;;;;;;;;;5045078;28;19920;-76
2022/12/18 18:18:38;;;;;;;;;;;;;;;;;;5040646;28;19920;-75
2022/12/18 18:21:25;;;;;;;;;;;;;;;;;;5035351;28;19917;-77
2022/12/18 18:24:11;;;;;;;;;;;;;;;;;;5039957;28;19920;-77
2022/12/18 18:26:58;;;;;;;;;;;;;;;;;;5043055;28;19921;-76
2022/12/18 18:29:45;;;;;;;;;;;;;;;;;;5035514;28;19928;-77
2022/12/18 18:32:31;;;;;;;;;;;;;;;;;;5034560;28;19917;-76
2022/12/18 18:35:18;;;;;;;;;;;;;;;;;;5034652;28;20165;-77
2022/12/18 18:38:04;;;;;;;;;;;;;;;;;;5027019;28;20399;-76
2022/12/18 18:40:51;;;;;;;;;;;;;;;;;;5038668;28;19919;-76
2022/12/18 18:43:37;;;;;;;;;;;;;;;;;;5029001;28;19929;-76
2022/12/18 18:46:24;;;;;;;;;;;;;;;;;;5034936;28;19937;-77
2022/12/18 18:49:12;;;;;;;;;;;;;;;;;;5022232;28;20286;-77
2022/12/18 18:51:59;;;;;;;;;;;;;;;;;;5030445;28;19913;-77
2022/12/18 18:54:45;;;;;;;;;;;;;;;;;;5030017;28;19921;-77
2022/12/18 18:57:32;;;;;;;;;;;;;;;;;;5031382;28;19917;-75
2022/12/18 19:00:18;;;;;;;;;;;;;;;;;;5033034;28;19932;-76
2022/12/18 19:03:05;;;;;;;;;;;;;;;;;;5034150;28;19935;-77
2022/12/18 19:05:52;;;;;;;;;;;;;;;;;;5030136;28;20283;-76
2022/12/18 19:08:38;;;;;;;;;;;;;;;;;;5024328;28;19920;-77
2022/12/18 19:14:30;;;;;;;;;;;;;;;;;;5029191;28;20312;-76
2022/12/18 19:17:17;;;;;;;;;;;;;;;;;;5035124;28;19917;-75
2022/12/18 19:20:03;;;;;;;;;;;;;;;;;;5032558;28;19913;-78